Time;durP1;ratioP1;P1;durP2;ratioP2;P2;SDS_P1;SDS_P2;PMS_P1;PMS_P2;Temp;Humidity;BMP_temperature;BMP_pressure;BME280_temperature;BME280_humidity;BME280_pressure;Samples;Min_cycle;Max_cycle;Signal;HPM_P1;HPM_P2
2022/10/29 00:00:55;;;;;;;3.97;3.42;;;18.50;99.90;;;;;;5067511;28;20209;-72
2022/10/29 00:03:22;;;;;;;3.80;3.35;;;18.50;99.90;;;;;;5052051;28;20182;-72
2022/10/29 00:06:01;;;;;;;4.40;3.10;;;18.50;99.90;;;;;;5067506;28;20280;-72
2022/10/29 00:08:30;;;;;;;4.40;3.60;;;18.50;99.90;;;;;;5048394;28;20189;-72
2022/10/29 00:11:05;;;;;;;3.92;3.50;;;18.50;99.90;;;;;;5049328;28;20301;-72
2022/10/29 00:13:31;;;;;;;5.55;3.70;;;18.50;99.90;;;;;;5049423;28;20193;-72
2022/10/29 00:15:56;;;;;;;4.32;3.33;;;18.50;99.90;;;;;;5032806;28;20190;-71
2022/10/29 00:18:22;;;;;;;4.60;3.70;;;18.50;99.90;;;;;;5066116;28;20244;-71
2022/10/29 00:20:48;;;;;;;3.83;3.17;;;18.50;99.90;;;;;;5051769;28;20221;-72
2022/10/29 00:23:14;;;;;;;4.40;3.47;;;18.50;99.90;;;;;;5052908;28;20189;-72
2022/10/29 00:25:40;;;;;;;4.72;3.67;;;18.50;99.90;;;;;;5069257;28;20185;-72
2022/10/29 00:28:05;;;;;;;4.10;3.47;;;18.50;99.90;;;;;;5069153;28;20181;-72
2022/10/29 00:30:31;;;;;;;4.10;3.30;;;18.50;99.90;;;;;;5069861;28;20213;-72
2022/10/29 00:32:57;;;;;;;4.32;3.92;;;18.50;99.90;;;;;;5053205;28;20323;-72
2022/10/29 00:35:23;;;;;;;4.15;3.65;;;18.50;99.90;;;;;;5053345;28;20272;-72
2022/10/29 00:37:48;;;;;;;3.28;2.95;;;18.50;99.90;;;;;;5073069;28;20193;-72
2022/10/29 00:40:14;;;;;;;5.78;3.25;;;18.50;99.90;;;;;;5056629;28;20178;-73
2022/10/29 00:42:40;;;;;;;4.78;3.75;;;18.40;99.90;;;;;;5071875;28;20651;-73
2022/10/29 00:45:16;;;;;;;3.97;3.13;;;18.40;99.90;;;;;;5049024;28;20178;-72
2022/10/29 00:47:42;;;;;;;4.85;3.30;;;18.50;99.90;;;;;;5089523;28;20268;-75
2022/10/29 00:50:12;;;;;;;4.03;3.38;;;18.40;99.90;;;;;;5073052;28;20174;-74
2022/10/29 00:52:46;;;;;;;3.97;3.58;;;18.50;99.90;;;;;;5089747;28;20197;-73
2022/10/29 00:55:14;;;;;;;4.82;3.42;;;18.40;99.90;;;;;;5073049;28;20189;-72
2022/10/29 00:57:48;;;;;;;4.82;3.42;;;18.40;99.90;;;;;;5072839;28;20364;-73
2022/10/29 01:00:16;;;;;;;4.25;3.72;;;18.40;99.90;;;;;;5089909;28;20185;-73
2022/10/29 01:02:44;;;;;;;4.82;3.65;;;18.40;99.90;;;;;;5089536;28;20205;-72
2022/10/29 01:05:17;;;;;;;5.28;3.30;;;18.40;99.90;;;;;;5072863;28;20188;-72
2022/10/29 01:07:43;;;;;;;5.00;3.30;;;18.40;99.90;;;;;;5072519;28;20193;-72
2022/10/29 01:10:11;;;;;;;4.65;3.33;;;18.50;99.90;;;;;;5073041;28;20217;-72
2022/10/29 01:13:06;;;;;;;3.88;3.17;;;18.40;99.90;;;;;;5072719;28;20219;-72
2022/10/29 01:15:51;;;;;;;5.20;3.35;;;18.40;99.90;;;;;;5058094;28;20177;-72
2022/10/29 01:18:34;;;;;;;4.03;3.38;;;18.40;99.90;;;;;;5067111;28;20181;-72
2022/10/29 01:21:37;;;;;;;4.45;3.60;;;18.40;99.90;;;;;;5089309;28;20228;-73
2022/10/29 01:24:32;;;;;;;4.28;3.10;;;18.40;99.90;;;;;;5072397;28;20194;-72
2022/10/29 01:27:38;;;;;;;4.10;2.90;;;18.40;99.90;;;;;;5072301;28;20206;-72
2022/10/29 01:33:33;;;;;;;5.25;3.20;;;18.40;99.90;;;;;;5013472;28;20266;-70
2022/10/29 01:36:45;;;;;;;3.22;2.80;;;18.40;99.90;;;;;;4997514;28;20259;-70
2022/10/29 01:39:43;;;;;;;5.43;2.70;;;18.40;99.90;;;;;;4997420;28;20184;-70
2022/10/29 01:42:18;;;;;;;4.05;3.15;;;18.40;99.90;;;;;;4980722;28;20219;-70
2022/10/29 01:45:16;;;;;;;4.93;3.35;;;18.40;99.90;;;;;;4997204;28;20175;-71
2022/10/29 01:47:53;;;;;;;4.25;3.00;;;18.40;99.90;;;;;;4980083;28;20648;-69
2022/10/29 01:50:23;;;;;;;3.60;2.83;;;18.40;99.90;;;;;;5013723;28;20180;-70
2022/10/29 01:52:51;;;;;;;4.22;3.03;;;18.40;99.90;;;;;;4997106;28;20750;-70
2022/10/29 01:55:28;;;;;;;4.78;3.50;;;18.40;99.90;;;;;;4997072;28;20579;-69
2022/10/29 01:57:54;;;;;;;3.28;2.95;;;18.40;99.90;;;;;;4996930;28;20218;-70
2022/10/29 02:00:21;;;;;;;6.40;3.75;;;18.40;99.90;;;;;;5013501;28;20184;-70
2022/10/29 02:03:30;;;;;;;3.17;2.88;;;18.40;99.90;;;;;;4997456;28;20184;-70
2022/10/29 02:06:14;;;;;;;3.90;3.00;;;18.40;99.90;;;;;;4996410;28;20206;-70
2022/10/29 02:09:13;;;;;;;3.78;2.65;;;18.40;99.90;;;;;;4996755;28;20203;-69
2022/10/29 02:11:59;;;;;;;3.78;2.97;;;18.40;99.90;;;;;;4996677;28;20211;-70
2022/10/29 02:14:36;;;;;;;3.67;2.75;;;18.40;99.90;;;;;;5013014;28;20643;-70
2022/10/29 02:17:03;;;;;;;3.33;2.83;;;18.40;99.90;;;;;;5013037;28;20176;-70
2022/10/29 02:19:34;;;;;;;3.72;2.90;;;18.40;99.90;;;;;;5013872;28;20180;-70
2022/10/29 02:22:00;;;;;;;3.63;2.88;;;18.40;99.90;;;;;;4996217;28;20220;-70
2022/10/29 02:24:26;;;;;;;3.00;2.60;;;18.40;99.90;;;;;;4980281;28;20191;-70
2022/10/29 02:26:52;;;;;;;3.58;2.70;;;18.40;99.90;;;;;;5013945;28;20180;-70
2022/10/29 02:29:18;;;;;;;5.18;2.78;;;18.40;99.90;;;;;;5012300;28;20632;-70
2022/10/29 02:31:44;;;;;;;5.88;3.40;;;18.40;99.90;;;;;;4996434;28;20223;-70
2022/10/29 02:34:09;;;;;;;4.03;3.10;;;18.40;99.90;;;;;;4996280;28;20180;-70
2022/10/29 02:36:35;;;;;;;3.40;2.70;;;18.40;99.90;;;;;;4996589;28;20592;-70
2022/10/29 02:39:01;;;;;;;3.80;2.90;;;18.40;99.90;;;;;;4995995;28;20238;-70
2022/10/29 02:41:26;;;;;;;4.43;2.88;;;18.40;99.90;;;;;;4980188;28;20676;-70
2022/10/29 02:43:52;;;;;;;3.10;2.80;;;18.40;99.90;;;;;;5012759;28;20226;-70
2022/10/29 02:46:21;;;;;;;3.42;2.80;;;18.40;99.90;;;;;;4996001;28;20214;-69
2022/10/29 02:48:47;;;;;;;3.30;2.75;;;18.40;99.90;;;;;;5012179;28;20238;-70
2022/10/29 02:51:15;;;;;;;3.08;2.72;;;18.40;99.90;;;;;;4995850;28;20211;-70
2022/10/29 02:53:41;;;;;;;4.55;3.00;;;18.40;99.90;;;;;;4979709;28;20271;-69
2022/10/29 02:56:15;;;;;;;4.57;2.55;;;18.40;99.90;;;;;;5012391;28;20282;-70
2022/10/29 02:58:41;;;;;;;3.08;2.70;;;18.40;99.90;;;;;;5013895;28;20226;-70
2022/10/29 03:01:07;;;;;;;3.92;2.33;;;18.40;99.90;;;;;;4995877;28;20220;-70
2022/10/29 03:03:32;;;;;;;4.32;3.00;;;18.40;99.90;;;;;;4995066;28;20535;-70
2022/10/29 03:05:58;;;;;;;3.00;2.75;;;18.40;99.90;;;;;;5013164;28;20188;-70
2022/10/29 03:08:24;;;;;;;3.40;2.78;;;18.40;99.90;;;;;;5013013;28;20230;-69
2022/10/29 03:10:50;;;;;;;3.33;2.70;;;18.40;99.90;;;;;;5012015;28;20219;-70
2022/10/29 03:13:16;;;;;;;3.38;2.60;;;18.40;99.90;;;;;;4995180;28;20192;-70
2022/10/29 03:15:46;;;;;;;3.97;2.40;;;18.40;99.90;;;;;;5011711;28;20199;-70
2022/10/29 03:18:12;;;;;;;3.53;2.70;;;18.40;99.90;;;;;;4995358;28;20211;-69
2022/10/29 03:20:38;;;;;;;3.33;2.20;;;18.40;99.90;;;;;;5011582;28;20317;-70
2022/10/29 03:23:04;;;;;;;4.55;2.90;;;18.30;99.90;;;;;;5012943;28;20180;-70
2022/10/29 03:25:29;;;;;;;5.03;2.60;;;18.40;99.90;;;;;;4995306;28;20184;-69
2022/10/29 03:27:55;;;;;;;3.00;2.40;;;18.30;99.90;;;;;;5011886;28;20263;-70
2022/10/29 03:30:21;;;;;;;3.63;2.67;;;18.30;99.90;;;;;;4978848;28;20242;-70
2022/10/29 03:32:47;;;;;;;3.25;2.75;;;18.30;99.90;;;;;;5011882;28;20180;-70
2022/10/29 03:35:15;;;;;;;3.80;2.85;;;18.40;99.90;;;;;;4995457;28;20192;-70
2022/10/29 03:37:41;;;;;;;2.58;2.38;;;18.40;99.90;;;;;;4979344;28;20188;-70
2022/10/29 03:40:08;;;;;;;3.63;2.28;;;18.30;99.90;;;;;;5011514;28;20184;-70
2022/10/29 03:42:34;;;;;;;4.07;3.00;;;18.30;99.90;;;;;;5012688;28;20212;-69
2022/10/29 03:45:01;;;;;;;4.50;2.67;;;18.40;99.90;;;;;;5011610;28;20187;-70
2022/10/29 03:47:27;;;;;;;3.30;2.50;;;18.40;99.90;;;;;;4979271;28;20183;-70
2022/10/29 03:49:53;;;;;;;4.22;2.38;;;18.30;99.90;;;;;;4994878;28;20634;-69
2022/10/29 03:52:20;;;;;;;5.20;2.80;;;18.40;99.90;;;;;;4995063;28;20242;-69
2022/10/29 03:54:45;;;;;;;4.18;2.50;;;18.40;99.90;;;;;;4995040;28;20671;-69
2022/10/29 03:57:12;;;;;;;3.20;2.60;;;18.30;99.90;;;;;;4979101;28;20187;-70
2022/10/29 03:59:38;;;;;;;5.18;3.00;;;18.40;99.90;;;;;;4995126;28;20184;-70
2022/10/29 04:02:04;;;;;;;3.35;2.50;;;18.30;99.90;;;;;;4994716;28;20220;-70
2022/10/29 04:04:29;;;;;;;3.42;2.63;;;18.30;99.90;;;;;;4994767;28;20176;-70
2022/10/29 04:06:55;;;;;;;3.58;2.88;;;18.40;99.90;;;;;;4995230;28;20180;-71
2022/10/29 04:09:21;;;;;;;4.15;2.88;;;18.30;99.90;;;;;;4999850;28;20183;-70
2022/10/29 04:11:46;;;;;;;4.07;3.08;;;18.30;99.90;;;;;;5014065;28;20208;-70
2022/10/29 04:14:12;;;;;;;3.03;2.72;;;18.30;99.90;;;;;;5015519;28;20225;-69
2022/10/29 04:16:38;;;;;;;3.85;3.05;;;18.40;99.90;;;;;;5015163;28;20198;-70
2022/10/29 04:19:04;;;;;;;4.30;2.95;;;18.30;99.90;;;;;;5016231;28;20254;-70
2022/10/29 04:21:29;;;;;;;3.85;2.70;;;18.30;99.90;;;;;;4982453;28;20230;-69
2022/10/29 04:23:55;;;;;;;3.50;2.28;;;18.30;99.90;;;;;;5015091;28;20188;-70
2022/10/29 04:26:21;;;;;;;3.53;2.75;;;18.30;99.90;;;;;;5015284;28;20231;-71
2022/10/29 04:28:51;;;;;;;3.45;2.75;;;18.30;99.90;;;;;;5015021;28;20241;-70
2022/10/29 04:31:18;;;;;;;4.80;2.80;;;18.30;99.90;;;;;;4998784;28;20215;-70
2022/10/29 04:33:44;;;;;;;3.72;2.83;;;18.30;99.90;;;;;;4982316;28;20180;-70
2022/10/29 04:36:11;;;;;;;4.75;2.70;;;18.30;99.90;;;;;;5015953;28;20188;-70
2022/10/29 04:38:37;;;;;;;4.10;2.85;;;18.30;99.90;;;;;;4998134;28;20192;-70
2022/10/29 04:41:03;;;;;;;4.85;3.20;;;18.40;99.90;;;;;;4998588;28;20314;-70
2022/10/29 04:43:30;;;;;;;3.03;2.72;;;18.30;99.90;;;;;;4982450;28;20271;-69
2022/10/29 04:45:58;;;;;;;4.38;3.10;;;18.30;99.90;;;;;;5015899;28;20218;-70
2022/10/29 04:48:26;;;;;;;3.50;2.85;;;18.30;99.90;;;;;;4981917;28;20267;-70
2022/10/29 04:50:51;;;;;;;3.53;2.85;;;18.30;99.90;;;;;;4998196;28;20200;-69
2022/10/29 04:53:18;;;;;;;3.30;2.67;;;18.30;99.90;;;;;;5014581;28;20250;-70
2022/10/29 04:55:44;;;;;;;4.55;3.10;;;18.30;99.90;;;;;;4998461;28;20196;-69
2022/10/29 04:58:19;;;;;;;3.80;2.97;;;18.30;99.90;;;;;;4997922;28;20250;-69
2022/10/29 05:00:45;;;;;;;3.67;3.08;;;18.30;99.90;;;;;;4998075;28;20226;-69
2022/10/29 05:03:11;;;;;;;3.50;3.10;;;18.40;99.90;;;;;;5015908;28;20224;-69
2022/10/29 05:05:38;;;;;;;3.05;2.58;;;18.30;99.90;;;;;;4998011;28;20208;-68
2022/10/29 05:08:06;;;;;;;3.80;2.88;;;18.30;99.90;;;;;;4997920;28;20270;-71
2022/10/29 05:10:35;;;;;;;4.20;3.03;;;18.30;99.90;;;;;;4987933;28;20205;-70
2022/10/29 05:13:11;;;;;;;3.20;2.80;;;18.30;99.90;;;;;;5013968;28;20176;-70
2022/10/29 05:15:38;;;;;;;4.65;3.03;;;18.30;99.90;;;;;;4997912;28;20255;-70
2022/10/29 05:18:05;;;;;;;3.78;3.03;;;18.30;99.90;;;;;;4997990;28;20176;-72
2022/10/29 05:20:32;;;;;;;4.68;3.30;;;18.30;99.90;;;;;;4997691;28;20275;-69
2022/10/29 05:23:10;;;;;;;3.42;3.13;;;18.30;99.90;;;;;;4996403;28;20184;-71
2022/10/29 05:25:39;;;;;;;3.75;3.03;;;18.30;99.90;;;;;;4997584;28;20179;-71
2022/10/29 05:28:14;;;;;;;3.15;2.80;;;18.30;99.90;;;;;;4997663;28;20180;-70
2022/10/29 05:30:40;;;;;;;3.30;3.00;;;18.40;99.90;;;;;;4997255;28;20289;-71
2022/10/29 05:33:08;;;;;;;3.10;2.78;;;18.30;99.90;;;;;;5014003;28;20187;-71
2022/10/29 05:35:35;;;;;;;3.60;3.20;;;18.30;99.90;;;;;;4997650;28;20283;-70
2022/10/29 05:38:01;;;;;;;5.95;3.00;;;18.40;99.90;;;;;;4997678;28;20188;-71
2022/10/29 05:40:27;;;;;;;4.13;2.90;;;18.30;99.90;;;;;;4997296;28;20219;-70
2022/10/29 05:42:53;;;;;;;3.38;2.85;;;18.30;99.90;;;;;;5013610;28;20172;-70
2022/10/29 05:45:20;;;;;;;3.45;3.05;;;18.30;99.90;;;;;;4981208;28;20230;-71
2022/10/29 05:47:46;;;;;;;4.15;3.40;;;18.30;99.90;;;;;;4997334;28;20180;-70
2022/10/29 05:50:12;;;;;;;4.18;3.08;;;18.30;99.90;;;;;;4980739;28;20199;-71
2022/10/29 05:52:39;;;;;;;4.07;3.10;;;18.30;99.90;;;;;;4997219;28;20204;-71
2022/10/29 05:55:05;;;;;;;4.57;3.47;;;18.30;99.90;;;;;;5014689;28;20192;-70
2022/10/29 05:57:31;;;;;;;4.97;3.17;;;18.30;99.90;;;;;;4997031;28;20214;-70
2022/10/29 05:59:57;;;;;;;4.28;3.28;;;18.30;99.90;;;;;;4996817;28;20632;-70
2022/10/29 06:02:23;;;;;;;3.63;3.17;;;18.30;99.90;;;;;;4997060;28;20211;-70
2022/10/29 06:04:49;;;;;;;3.95;2.70;;;18.30;99.90;;;;;;5015458;28;20191;-70
2022/10/29 06:07:15;;;;;;;3.45;2.75;;;18.30;99.90;;;;;;4994416;28;20190;-70
2022/10/29 06:09:40;;;;;;;3.65;3.05;;;18.30;99.90;;;;;;4996441;28;20184;-71
2022/10/29 06:12:06;;;;;;;3.30;3.00;;;18.30;99.90;;;;;;4996957;28;20280;-70
2022/10/29 06:14:32;;;;;;;3.95;3.55;;;18.30;99.90;;;;;;4996954;28;20206;-70
2022/10/29 06:17:00;;;;;;;4.28;2.60;;;18.30;99.90;;;;;;4996799;28;20291;-70
2022/10/29 06:19:25;;;;;;;5.05;3.70;;;18.30;99.90;;;;;;4996596;28;20199;-71
2022/10/29 06:21:51;;;;;;;3.90;3.05;;;18.30;99.90;;;;;;5012731;28;20216;-71
2022/10/29 06:24:17;;;;;;;4.07;3.40;;;18.30;99.90;;;;;;4996767;28;20235;-71
2022/10/29 06:26:42;;;;;;;3.95;3.47;;;18.30;99.90;;;;;;5012703;28;20192;-71
2022/10/29 06:29:08;;;;;;;4.63;3.33;;;18.30;99.90;;;;;;5013712;28;20567;-70
2022/10/29 06:31:34;;;;;;;3.40;3.10;;;18.30;99.90;;;;;;4996068;28;20220;-71
2022/10/29 06:33:59;;;;;;;5.45;3.70;;;18.30;99.90;;;;;;4995829;28;20203;-71
2022/10/29 06:36:25;;;;;;;3.97;3.28;;;18.30;99.90;;;;;;5012912;28;20188;-70
2022/10/29 06:38:51;;;;;;;4.13;3.17;;;18.30;99.90;;;;;;5012565;28;20187;-70
2022/10/29 06:41:17;;;;;;;4.63;3.08;;;18.30;99.90;;;;;;4996257;28;20223;-71
2022/10/29 06:43:42;;;;;;;4.05;3.08;;;18.30;99.90;;;;;;5012799;28;20180;-71
2022/10/29 06:46:08;;;;;;;3.63;2.97;;;18.30;99.90;;;;;;4996063;28;20687;-70
2022/10/29 06:48:34;;;;;;;3.45;3.15;;;18.30;99.90;;;;;;5012362;28;20234;-69
2022/10/29 06:51:00;;;;;;;3.78;2.97;;;18.30;99.90;;;;;;5013605;28;20203;-70
2022/10/29 06:53:26;;;;;;;3.88;3.33;;;18.30;99.90;;;;;;4979865;28;20250;-70
2022/10/29 06:55:52;;;;;;;4.50;3.42;;;18.30;99.90;;;;;;5013626;28;20249;-70
2022/10/29 06:58:20;;;;;;;3.40;3.10;;;18.30;99.90;;;;;;4996210;28;20193;-71
2022/10/29 07:00:46;;;;;;;3.78;3.10;;;18.30;99.90;;;;;;5012119;28;20216;-70
2022/10/29 07:03:19;;;;;;;4.93;3.20;;;18.30;99.90;;;;;;5012248;28;20255;-71
2022/10/29 07:05:45;;;;;;;3.33;2.92;;;18.30;99.90;;;;;;4996159;28;20191;-70
2022/10/29 07:08:12;;;;;;;3.78;3.15;;;18.30;99.90;;;;;;5012541;28;20188;-71
2022/10/29 07:10:38;;;;;;;4.47;2.95;;;18.30;99.90;;;;;;5011806;28;20204;-71
2022/10/29 07:13:04;;;;;;;4.18;2.85;;;18.30;99.90;;;;;;5013185;28;20179;-71
2022/10/29 07:15:30;;;;;;;3.80;3.25;;;18.30;99.90;;;;;;4986652;28;20181;-70
2022/10/29 07:18:05;;;;;;;4.85;3.05;;;18.30;99.90;;;;;;4960129;28;20199;-70
2022/10/29 07:20:35;;;;;;;8.68;3.53;;;18.30;99.90;;;;;;4981188;28;20624;-70
2022/10/29 07:23:00;;;;;;;3.83;3.30;;;18.30;99.90;;;;;;5009677;28;20212;-70
2022/10/29 07:25:28;;;;;;;4.25;3.00;;;18.30;99.90;;;;;;5004286;28;20206;-71
2022/10/29 07:27:54;;;;;;;6.25;3.22;;;18.40;99.90;;;;;;5000575;28;20181;-71
2022/10/29 07:30:20;;;;;;;5.25;3.28;;;18.30;99.90;;;;;;5012518;28;20199;-71
2022/10/29 07:32:46;;;;;;;4.13;3.03;;;18.40;99.90;;;;;;5048578;22;20233;-65
2022/10/29 07:35:12;;;;;;;3.92;3.10;;;18.40;99.90;;;;;;5034916;28;20174;-68
2022/10/29 07:37:38;;;;;;;5.38;3.17;;;18.40;99.90;;;;;;5034667;28;20267;-67
2022/10/29 07:40:05;;;;;;;4.97;2.92;;;18.40;99.90;;;;;;5034375;28;20190;-67
2022/10/29 07:42:30;;;;;;;6.10;3.33;;;18.40;99.90;;;;;;5030809;28;20215;-66
2022/10/29 07:44:56;;;;;;;4.47;2.92;;;18.40;99.90;;;;;;5044301;28;20183;-67
2022/10/29 07:47:22;;;;;;;3.97;3.20;;;18.40;99.90;;;;;;5031167;28;20174;-68
2022/10/29 07:49:48;;;;;;;4.32;3.30;;;18.40;99.90;;;;;;5047899;28;20551;-67
2022/10/29 07:52:13;;;;;;;4.70;3.35;;;18.40;99.90;;;;;;5034429;28;20232;-67
2022/10/29 07:54:39;;;;;;;4.15;3.20;;;18.40;99.90;;;;;;5046557;28;20179;-67
2022/10/29 07:57:05;;;;;;;4.57;3.35;;;18.40;99.90;;;;;;5041917;28;20190;-68
2022/10/29 07:59:31;;;;;;;5.93;3.65;;;18.40;99.90;;;;;;5025897;28;20257;-67
2022/10/29 08:01:56;;;;;;;5.93;3.90;;;18.40;99.90;;;;;;5040352;28;20597;-64
2022/10/29 08:04:22;;;;;;;4.15;3.30;;;18.40;99.90;;;;;;5012723;28;20184;-68
2022/10/29 08:06:48;;;;;;;4.75;3.42;;;18.40;99.90;;;;;;5033154;28;20281;-67
2022/10/29 08:09:13;;;;;;;4.10;3.50;;;18.40;99.90;;;;;;5050514;28;20240;-67
2022/10/29 08:11:39;;;;;;;4.43;3.63;;;18.40;99.90;;;;;;5028222;28;20211;-68
2022/10/29 08:14:05;;;;;;;6.38;4.00;;;18.40;99.90;;;;;;5044743;28;20226;-68
2022/10/29 08:16:31;;;;;;;4.65;3.85;;;18.40;99.90;;;;;;5030725;28;20202;-69
2022/10/29 08:18:57;;;;;;;4.10;3.63;;;18.40;99.90;;;;;;5005308;28;20179;-67
2022/10/29 08:21:23;;;;;;;5.78;4.28;;;18.50;99.90;;;;;;5030584;28;20284;-68
2022/10/29 08:23:49;;;;;;;4.93;3.88;;;18.50;99.90;;;;;;5014860;28;20651;-68
2022/10/29 08:26:14;;;;;;;6.80;3.90;;;18.50;99.90;;;;;;5014145;28;20195;-67
2022/10/29 08:28:41;;;;;;;7.22;4.18;;;18.50;99.90;;;;;;5014210;28;20179;-67
2022/10/29 08:31:08;;;;;;;5.15;4.00;;;18.50;99.90;;;;;;5030839;28;20195;-67
2022/10/29 08:33:34;;;;;;;4.32;3.92;;;18.50;99.90;;;;;;5031030;28;20191;-66
2022/10/29 08:36:00;;;;;;;6.65;4.32;;;18.50;99.90;;;;;;5030727;28;20194;-68
2022/10/29 08:38:26;;;;;;;8.52;5.07;;;18.50;99.90;;;;;;5014130;28;20187;-68
2022/10/29 08:41:01;;;;;;;6.40;5.40;;;18.50;99.90;;;;;;5030770;28;20267;-68
2022/10/29 08:43:54;;;;;;;5.38;4.80;;;18.50;99.90;;;;;;5023496;28;20183;-68
2022/10/29 08:46:39;;;;;;;7.45;4.80;;;18.50;99.90;;;;;;5012136;28;20178;-67
2022/10/29 08:49:16;;;;;;;5.80;4.68;;;18.50;99.90;;;;;;5033716;28;20238;-68
2022/10/29 08:51:52;;;;;;;6.05;4.35;;;18.50;99.90;;;;;;5027746;28;20297;-68
2022/10/29 08:54:18;;;;;;;7.03;4.65;;;18.50;99.90;;;;;;5030296;28;20275;-68
2022/10/29 08:56:51;;;;;;;7.50;4.93;;;18.50;99.90;;;;;;5029840;28;20266;-68
2022/10/29 08:59:22;;;;;;;6.60;4.45;;;18.50;99.90;;;;;;5017637;28;20180;-68
2022/10/29 09:01:49;;;;;;;6.47;4.50;;;18.50;99.90;;;;;;5017808;28;20215;-67
2022/10/29 09:04:34;;;;;;;5.90;4.47;;;18.50;99.90;;;;;;5034004;28;20190;-67
2022/10/29 09:07:18;;;;;;;6.22;4.47;;;18.50;99.90;;;;;;5034074;28;20171;-65
2022/10/29 09:10:24;;;;;;;6.28;4.63;;;18.50;99.90;;;;;;5034126;28;20172;-67
2022/10/29 09:13:29;;;;;;;7.82;4.68;;;18.50;99.90;;;;;;5033784;28;20348;-67
2022/10/29 09:16:31;;;;;;;5.93;4.82;;;18.50;99.90;;;;;;5035260;28;20167;-67
2022/10/29 09:19:09;;;;;;;6.00;4.78;;;18.50;99.90;;;;;;5017513;28;20193;-68
2022/10/29 09:22:16;;;;;;;6.07;4.70;;;18.50;99.90;;;;;;5033986;28;20227;-66
2022/10/29 09:25:15;;;;;;;6.82;4.47;;;18.50;99.90;;;;;;5034203;28;20171;-68
2022/10/29 09:28:25;;;;;;;7.35;4.65;;;18.50;99.90;;;;;;5033718;28;20187;-66
2022/10/29 09:31:17;;;;;;;6.28;4.55;;;18.60;99.90;;;;;;5034901;28;20232;-67
2022/10/29 09:33:46;;;;;;;6.15;4.30;;;18.50;99.90;;;;;;5017408;28;20222;-68
2022/10/29 09:36:17;;;;;;;6.55;4.25;;;18.50;99.90;;;;;;5017036;28;20234;-68
2022/10/29 09:38:58;;;;;;;7.03;4.43;;;18.60;99.90;;;;;;5016758;28;20179;-68
2022/10/29 09:41:30;;;;;;;6.60;4.20;;;18.60;99.90;;;;;;5033292;28;20223;-66
2022/10/29 09:44:10;;;;;;;5.95;4.32;;;18.60;99.90;;;;;;5033416;28;20262;-67
2022/10/29 09:46:53;;;;;;;7.30;4.47;;;18.60;99.90;;;;;;5016787;28;20187;-68
2022/10/29 09:49:43;;;;;;;5.75;4.15;;;18.60;99.90;;;;;;5016583;28;20186;-67
2022/10/29 09:52:22;;;;;;;7.72;4.68;;;18.60;99.90;;;;;;5033221;28;20215;-67
2022/10/29 09:54:53;;;;;;;7.00;3.95;;;18.60;99.90;;;;;;5033463;28;20187;-66
2022/10/29 09:57:23;;;;;;;5.38;3.60;;;18.60;99.90;;;;;;5035874;28;20729;-67
2022/10/29 10:00:01;;;;;;;5.90;3.83;;;18.60;99.90;;;;;;5016472;28;20190;-68
2022/10/29 10:02:36;;;;;;;8.35;4.07;;;18.60;99.90;;;;;;5032922;28;20254;-67
2022/10/29 10:05:11;;;;;;;7.05;3.60;;;18.60;99.90;;;;;;5032768;28;20183;-67
2022/10/29 10:07:38;;;;;;;5.38;3.20;;;18.60;99.90;;;;;;5016415;28;20187;-68
2022/10/29 10:10:23;;;;;;;5.30;3.45;;;18.60;99.90;;;;;;5026929;28;20655;-68
2022/10/29 10:12:50;;;;;;;5.00;3.45;;;18.60;99.90;;;;;;5034510;28;20206;-68
2022/10/29 10:15:17;;;;;;;7.78;3.70;;;18.60;99.90;;;;;;5016198;28;20195;-67
2022/10/29 10:17:55;;;;;;;7.32;3.80;;;18.60;99.90;;;;;;5033051;28;20238;-66
2022/10/29 10:20:28;;;;;;;4.40;3.65;;;18.60;99.90;;;;;;5025148;28;20174;-68
2022/10/29 10:22:54;;;;;;;5.10;3.83;;;18.60;99.90;;;;;;5035797;28;20229;-65
2022/10/29 10:25:39;;;;;;;6.28;3.63;;;18.60;99.90;;;;;;5019552;28;20186;-67
2022/10/29 10:28:43;;;;;;;4.93;3.80;;;18.60;99.90;;;;;;5036105;28;20209;-68
2022/10/29 10:31:13;;;;;;;6.28;3.58;;;18.60;99.90;;;;;;5032602;28;20202;-72
2022/10/29 10:33:52;;;;;;;6.15;3.65;;;18.60;99.90;;;;;;5052690;28;20179;-72
2022/10/29 10:36:23;;;;;;;6.20;3.75;;;18.60;99.90;;;;;;5052587;28;20564;-72
2022/10/29 10:38:56;;;;;;;6.28;3.60;;;18.60;99.90;;;;;;5043248;28;20223;-72
2022/10/29 10:41:34;;;;;;;5.72;3.47;;;18.60;99.90;;;;;;5015894;28;20215;-72
2022/10/29 10:44:04;;;;;;;4.85;3.20;;;18.60;99.90;;;;;;5033618;28;20179;-72
2022/10/29 10:46:39;;;;;;;5.65;3.85;;;18.60;99.90;;;;;;5015987;28;20185;-72
2022/10/29 10:49:14;;;;;;;6.40;3.58;;;18.60;99.90;;;;;;5040871;28;20204;-72
2022/10/29 10:51:50;;;;;;;6.43;3.60;;;18.60;99.90;;;;;;5044639;28;20207;-72
2022/10/29 10:54:40;;;;;;;8.63;3.65;;;18.70;99.90;;;;;;4999465;28;20194;-72
2022/10/29 10:57:09;;;;;;;4.93;3.13;;;18.70;99.90;;;;;;5046114;28;20190;-72
2022/10/29 11:00:02;;;;;;;5.30;3.38;;;18.70;99.90;;;;;;5022892;28;20206;-72
2022/10/29 11:02:52;;;;;;;4.82;3.50;;;18.70;99.90;;;;;;5037513;28;20257;-70
2022/10/29 11:05:30;;;;;;;3.30;2.97;;;18.70;99.90;;;;;;5042832;28;20197;-72
2022/10/29 11:08:14;;;;;;;5.28;3.05;;;18.70;99.90;;;;;;5035505;28;20178;-72
2022/10/29 11:10:56;;;;;;;3.92;3.05;;;18.70;99.90;;;;;;5051327;28;20186;-72
2022/10/29 11:13:27;;;;;;;5.45;3.10;;;18.70;99.90;;;;;;5033571;28;20580;-72
2022/10/29 11:16:02;;;;;;;3.63;3.00;;;18.70;99.90;;;;;;4996526;28;20176;-72
2022/10/29 11:18:40;;;;;;;7.80;3.60;;;18.70;99.90;;;;;;5013693;28;20184;-72
2022/10/29 11:21:32;;;;;;;4.50;3.00;;;18.70;99.90;;;;;;5012247;28;20310;-72
2022/10/29 11:24:23;;;;;;;3.85;2.80;;;18.70;99.90;;;;;;4995995;28;20267;-71
2022/10/29 11:27:03;;;;;;;3.75;2.85;;;18.70;99.90;;;;;;5034294;28;20189;-72
2022/10/29 11:29:56;;;;;;;4.93;3.10;;;18.70;99.90;;;;;;5024212;28;20261;-72
2022/10/29 11:32:44;;;;;;;6.07;3.40;;;18.70;99.90;;;;;;5051691;28;20723;-72
2022/10/29 11:35:18;;;;;;;8.88;3.22;;;18.70;99.90;;;;;;5035556;28;20170;-70
2022/10/29 11:38:23;;;;;;;3.67;2.75;;;18.70;99.90;;;;;;5035410;28;20189;-72
2022/10/29 11:41:18;;;;;;;5.05;3.10;;;18.70;99.90;;;;;;5029213;28;20218;-72
2022/10/29 11:43:46;;;;;;;5.03;3.20;;;18.70;99.90;;;;;;4999103;28;20191;-72
2022/10/29 11:47:05;;;;;;;6.95;3.40;;;18.70;99.90;;;;;;5015500;28;20175;-72
2022/10/29 11:49:59;;;;;;;5.35;3.42;;;18.70;99.90;;;;;;4999181;28;20191;-72
2022/10/29 11:52:46;;;;;;;4.53;3.88;;;18.70;99.90;;;;;;5031686;28;20213;-72
2022/10/29 11:55:32;;;;;;;4.38;3.17;;;18.70;99.90;;;;;;5015837;28;20193;-71
2022/10/29 11:58:08;;;;;;;5.35;3.22;;;18.70;99.90;;;;;;5031404;28;20187;-72
2022/10/29 12:01:22;;;;;;;6.88;3.58;;;18.70;99.90;;;;;;5031631;28;20187;-72
2022/10/29 12:04:21;;;;;;;4.80;3.85;;;18.70;99.90;;;;;;5006321;28;20199;-72
2022/10/29 12:07:28;;;;;;;6.32;4.13;;;18.70;99.90;;;;;;5031089;28;20282;-72
2022/10/29 12:10:43;;;;;;;6.68;3.58;;;18.70;99.90;;;;;;5031296;28;20179;-72
2022/10/29 12:13:23;;;;;;;6.68;4.32;;;18.70;99.90;;;;;;5014747;28;20714;-72
2022/10/29 12:16:29;;;;;;;6.80;4.53;;;18.70;99.90;;;;;;5031237;28;20227;-72
2022/10/29 12:19:10;;;;;;;5.82;4.05;;;18.70;99.90;;;;;;5013655;28;20186;-72
2022/10/29 12:22:03;;;;;;;5.95;4.55;;;18.70;99.90;;;;;;5030891;28;20233;-72
2022/10/29 12:24:56;;;;;;;9.40;5.30;;;18.80;99.90;;;;;;5030950;28;20175;-72
2022/10/29 12:27:35;;;;;;;8.25;4.70;;;18.70;99.90;;;;;;5034410;28;20179;-72
2022/10/29 12:30:06;;;;;;;7.85;4.88;;;18.80;99.90;;;;;;5031034;28;20198;-72
2022/10/29 12:32:49;;;;;;;7.78;4.85;;;18.80;99.90;;;;;;5050772;28;20265;-72
2022/10/29 12:35:44;;;;;;;8.40;4.80;;;18.80;99.90;;;;;;5046585;28;20182;-72
2022/10/29 12:38:31;;;;;;;5.70;4.43;;;18.80;99.90;;;;;;5027937;28;20236;-72
2022/10/29 12:41:11;;;;;;;7.47;4.85;;;18.80;99.90;;;;;;5034596;28;20218;-72
2022/10/29 12:43:39;;;;;;;8.27;5.03;;;18.80;99.90;;;;;;5035183;28;20183;-72
2022/10/29 12:46:45;;;;;;;7.88;5.30;;;18.80;99.90;;;;;;5034680;28;20270;-72
2022/10/29 12:49:37;;;;;;;6.38;4.70;;;18.70;99.90;;;;;;5017561;28;20190;-72
2022/10/29 12:52:24;;;;;;;7.25;4.88;;;18.80;99.90;;;;;;5026517;28;20675;-72
2022/10/29 12:54:51;;;;;;;7.85;5.10;;;18.80;99.90;;;;;;5034761;28;20178;-72
2022/10/29 12:57:27;;;;;;;7.20;4.97;;;18.80;99.90;;;;;;5004367;28;20199;-72
2022/10/29 12:59:53;;;;;;;7.75;5.65;;;18.80;99.90;;;;;;5000789;28;20190;-73
2022/10/29 13:02:37;;;;;;;7.63;5.30;;;18.80;99.90;;;;;;5037432;28;20218;-72
2022/10/29 13:05:05;;;;;;;6.05;4.70;;;18.80;99.90;;;;;;5054195;28;20244;-72
2022/10/29 13:07:32;;;;;;;7.60;5.22;;;18.80;99.90;;;;;;5046198;28;20266;-72
2022/10/29 13:10:25;;;;;;;9.10;5.03;;;18.80;99.90;;;;;;5035252;28;20176;-72
2022/10/29 13:12:57;;;;;;;9.82;4.78;;;18.80;99.90;;;;;;5032490;28;20258;-72
2022/10/29 13:15:46;;;;;;;9.43;5.22;;;18.80;99.90;;;;;;5034108;28;20283;-72
2022/10/29 13:18:11;;;;;;;6.90;4.88;;;18.80;99.90;;;;;;5017748;28;20222;-72
2022/10/29 13:20:50;;;;;;;9.55;5.38;;;18.80;99.90;;;;;;5041869;28;20210;-72
2022/10/29 13:23:22;;;;;;;7.65;4.70;;;18.80;99.90;;;;;;5035784;28;20256;-72